Time;durP1;ratioP1;P1;durP2;ratioP2;P2;SDS_P1;SDS_P2;PMS_P1;PMS_P2;Temp;Humidity;BMP_temperature;BMP_pressure;BME280_temperature;BME280_humidity;BME280_pressure;Samples;Min_cycle;Max_cycle;Signal;HPM_P1;HPM_P2
2022/10/18 00:00:40;;;;;;;28.95;13.30;;;;;;;12.75;100.00;99375.59;2624331;28;20652;-88
2022/10/18 00:02:18;;;;;;;31.83;12.13;;;;;;;12.81;100.00;99378.09;2623055;28;20082;-87
2022/10/18 00:03:34;;;;;;;45.78;12.73;;;;;;;12.99;100.00;99378.56;2621211;28;20572;-87
2022/10/18 00:04:50;;;;;;;41.30;12.60;;;;;;;13.02;100.00;99381.16;2621014;28;20052;-87
2022/10/18 00:06:07;;;;;;;29.15;12.35;;;;;;;13.05;100.00;99382.81;2622877;28;20084;-87
2022/10/18 00:07:23;;;;;;;51.72;12.88;;;;;;;13.00;100.00;99383.81;2622662;28;20052;-87
2022/10/18 00:08:39;;;;;;;29.50;11.50;;;;;;;13.12;100.00;99389.69;2620753;28;20072;-87
2022/10/18 00:09:54;;;;;;;27.52;12.00;;;;;;;13.14;100.00;99385.25;2621957;28;20419;-86
2022/10/18 00:11:10;;;;;;;25.33;11.43;;;;;;;12.91;100.00;99380.53;2621778;28;20494;-86
2022/10/18 00:12:26;;;;;;;42.58;12.02;;;;;;;12.96;100.00;99389.16;2622465;28;20048;-88
2022/10/18 00:13:41;;;;;;;40.50;12.38;;;;;;;12.91;100.00;99386.63;2622665;28;20052;-87
2022/10/18 00:14:57;;;;;;;54.97;12.80;;;;;;;12.82;100.00;99398.22;2621416;28;20072;-88
2022/10/18 00:16:15;;;;;;;23.90;12.00;;;;;;;12.46;100.00;99397.22;2623884;28;20045;-87
2022/10/18 00:17:33;;;;;;;34.15;12.45;;;;;;;12.64;100.00;99386.34;2621325;28;20056;-87
2022/10/18 00:18:49;;;;;;;46.05;13.32;;;;;;;12.80;100.00;99389.50;2623251;28;20349;-88
2022/10/18 00:20:06;;;;;;;25.58;12.88;;;;;;;12.71;100.00;99392.31;2620806;28;20051;-86
2022/10/18 00:21:23;;;;;;;27.88;12.80;;;;;;;12.53;100.00;99386.56;2624253;28;20051;-86
2022/10/18 00:22:40;;;;;;;23.17;13.00;;;;;;;12.61;100.00;99388.19;2621553;28;20052;-85
2022/10/18 00:23:55;;;;;;;31.38;12.85;;;;;;;12.76;100.00;99392.22;2623990;28;20067;-87
2022/10/18 00:25:11;;;;;;;35.53;13.18;;;;;;;12.36;100.00;99388.69;2620549;28;20056;-85
2022/10/18 00:26:28;;;;;;;29.27;13.00;;;;;;;12.52;100.00;99384.84;2619793;28;20040;-86
2022/10/18 00:27:44;;;;;;;26.08;13.13;;;;;;;12.78;100.00;99388.66;2622013;28;20486;-87
2022/10/18 00:29:02;;;;;;;26.73;12.45;;;;;;;12.59;100.00;99387.34;2621976;28;20045;-86
2022/10/18 00:30:18;;;;;;;27.08;11.63;;;;;;;12.59;100.00;99387.34;2626418;28;20152;-86
2022/10/18 00:31:36;;;;;;;35.63;12.32;;;;;;;12.55;100.00;99382.13;2622336;28;20075;-86
2022/10/18 00:32:51;;;;;;;26.55;12.07;;;;;;;12.69;100.00;99380.97;2625036;28;20079;-87
2022/10/18 00:34:11;;;;;;;42.17;13.18;;;;;;;12.70;100.00;99380.06;2622125;28;20044;-86
2022/10/18 00:35:26;;;;;;;39.33;12.45;;;;;;;12.54;100.00;99383.03;2623023;28;20502;-87
2022/10/18 00:36:43;;;;;;;32.72;13.82;;;;;;;12.29;100.00;99386.19;2626046;28;20055;-86
2022/10/18 00:37:59;;;;;;;27.95;13.25;;;;;;;12.35;100.00;99381.69;2622751;28;20071;-86
2022/10/18 00:39:19;;;;;;;31.40;13.35;;;;;;;12.56;100.00;99381.22;2621623;28;20078;-87
2022/10/18 00:40:34;;;;;;;31.88;13.23;;;;;;;12.67;100.00;99375.78;2624411;28;20044;-87
2022/10/18 00:41:50;;;;;;;25.90;12.30;;;;;;;12.81;100.00;99383.34;2620964;28;20097;-90
2022/10/18 00:43:13;;;;;;;20.20;11.05;;;;;;;12.89;100.00;99372.66;2621866;28;20082;-89
2022/10/18 00:44:29;;;;;;;22.55;10.75;;;;;;;12.94;100.00;99377.81;2624106;28;20419;-87
2022/10/18 00:45:44;;;;;;;27.50;11.95;;;;;;;12.84;100.00;99375.38;2620811;28;20052;-87
2022/10/18 00:47:03;;;;;;;33.97;11.48;;;;;;;12.51;100.00;99369.13;2622947;28;20564;-86
2022/10/18 00:48:20;;;;;;;22.55;11.75;;;;;;;12.28;100.00;99373.06;2621963;28;20049;-85
2022/10/18 00:49:42;;;;;;;36.67;12.43;;;;;;;12.42;100.00;99370.16;2624168;28;20053;-87
2022/10/18 00:50:58;;;;;;;34.40;12.68;;;;;;;12.43;100.00;99372.75;2622457;28;20127;-89
2022/10/18 00:52:45;;;;;;;29.77;12.35;;;;;;;12.19;100.00;99378.50;2623130;28;20067;-86
2022/10/18 00:54:01;;;;;;;35.17;11.75;;;;;;;12.41;100.00;99376.31;2612090;28;20856;-86
2022/10/18 00:55:17;;;;;;;32.47;11.77;;;;;;;12.31;100.00;99372.16;2622498;28;20079;-86
2022/10/18 00:56:33;;;;;;;34.72;12.57;;;;;;;12.46;100.00;99363.97;2623058;28;20044;-86
2022/10/18 00:57:49;;;;;;;46.33;12.55;;;;;;;12.38;100.00;99368.50;2624988;28;20543;-88
2022/10/18 00:59:06;;;;;;;33.22;12.95;;;;;;;12.49;100.00;99365.63;2624190;28;20056;-86
2022/10/18 01:00:22;;;;;;;26.65;12.38;;;;;;;12.66;100.00;99360.03;2622894;28;20052;-87
2022/10/18 01:01:38;;;;;;;30.25;12.05;;;;;;;12.74;100.00;99359.88;2624864;28;20048;-87
2022/10/18 01:02:53;;;;;;;23.75;11.82;;;;;;;12.82;100.00;99360.56;2624247;28;20052;-90
2022/10/18 01:04:10;;;;;;;45.10;12.43;;;;;;;12.70;100.00;99366.94;2624100;28;20044;-88
2022/10/18 01:05:26;;;;;;;25.13;11.38;;;;;;;12.34;100.00;99370.31;2625806;28;20093;-86
2022/10/18 01:07:09;;;;;;;36.17;11.65;;;;;;;11.98;100.00;99365.72;2624502;28;20052;-86
2022/10/18 01:08:24;;;;;;;30.63;11.75;;;;;;;12.06;100.00;99372.63;2626802;28;20418;-86
2022/10/18 01:09:57;;;;;;;27.92;11.82;;;;;;;12.45;100.00;99359.59;2623611;28;20409;-86
2022/10/18 01:11:43;;;;;;;20.30;10.98;;;;;;;12.68;100.00;99360.84;2621196;28;20143;-86
2022/10/18 01:13:21;;;;;;;24.52;10.85;;;;;;;12.69;100.00;99357.34;2625984;28;20044;-87
2022/10/18 01:15:02;;;;;;;21.55;11.18;;;;;;;12.75;100.00;99358.97;2611332;28;20052;-86
2022/10/18 01:16:38;;;;;;;21.60;10.18;;;;;;;12.61;100.00;99359.28;2625512;28;20397;-86
2022/10/18 01:18:08;;;;;;;27.58;10.20;;;;;;;12.61;100.00;99352.25;2624964;28;20792;-90
2022/10/18 01:19:44;;;;;;;36.55;10.80;;;;;;;12.59;100.00;99348.78;2624634;28;20466;-88
2022/10/18 01:21:23;;;;;;;32.90;10.50;;;;;;;12.51;100.00;99338.44;2595901;28;20041;-87
2022/10/18 01:22:48;;;;;;;40.90;11.43;;;;;;;12.70;100.00;99340.66;2625117;28;20121;-88
2022/10/18 01:24:22;;;;;;;22.45;10.15;;;;;;;12.31;100.00;99338.03;2624417;28;20407;-86
2022/10/18 01:26:08;;;;;;;25.08;10.95;;;;;;;12.31;100.00;99345.91;2624381;28;20070;-87
2022/10/18 01:27:36;;;;;;;23.00;10.80;;;;;;;12.15;100.00;99351.44;2603501;28;20061;-90
2022/10/18 01:29:35;;;;;;;24.13;11.02;;;;;;;12.21;100.00;99353.94;2624898;28;20096;-89
2022/10/18 01:31:10;;;;;;;33.42;11.23;;;;;;;12.39;100.00;99352.72;2626462;28;20052;-87
2022/10/18 01:32:48;;;;;;;30.33;10.70;;;;;;;12.44;100.00;99352.63;2622648;28;20131;-87
2022/10/18 01:34:08;;;;;;;37.80;11.60;;;;;;;12.59;100.00;99340.06;2623529;28;20091;-87
2022/10/18 01:35:30;;;;;;;44.45;11.63;;;;;;;12.60;100.00;99341.78;2624793;28;20080;-87
2022/10/18 01:36:50;;;;;;;24.65;10.02;;;;;;;12.27;100.00;99343.31;2626119;28;20079;-85
2022/10/18 01:38:11;;;;;;;35.05;11.00;;;;;;;12.40;100.00;99343.94;2622011;28;20129;-88
2022/10/18 01:39:36;;;;;;;27.90;10.63;;;;;;;12.33;100.00;99346.72;2623906;28;20537;-88
2022/10/18 01:40:54;;;;;;;29.40;11.32;;;;;;;12.48;100.00;99341.16;2626650;28;20576;-88
2022/10/18 01:42:12;;;;;;;28.00;11.20;;;;;;;12.52;100.00;99342.81;2622402;28;20045;-87
2022/10/18 01:43:30;;;;;;;22.75;10.65;;;;;;;12.30;100.00;99337.16;2624754;28;20509;-86
2022/10/18 01:44:49;;;;;;;27.38;11.65;;;;;;;12.07;100.00;99340.25;2624135;28;20052;-86
2022/10/18 01:46:07;;;;;;;32.22;12.23;;;;;;;11.98;100.00;99339.47;2623979;28;20063;-86
2022/10/18 01:47:23;;;;;;;32.38;12.13;;;;;;;11.98;100.00;99349.97;2621266;28;20052;-86
2022/10/18 01:48:39;;;;;;;21.25;11.27;;;;;;;12.14;100.00;99341.84;2625656;28;20139;-86
2022/10/18 01:50:02;;;;;;;28.23;11.65;;;;;;;12.39;100.00;99336.09;2623227;28;20048;-89
2022/10/18 01:51:26;;;;;;;37.17;10.95;;;;;;;12.37;100.00;99332.63;2624393;28;21101;-90
2022/10/18 01:52:50;;;;;;;32.38;11.43;;;;;;;12.52;100.00;99334.09;2625723;28;20232;-88
2022/10/18 01:54:05;;;;;;;21.40;11.10;;;;;;;12.64;100.00;99343.44;2622646;28;20514;-89
2022/10/18 01:55:30;;;;;;;36.97;11.68;;;;;;;12.47;100.00;99346.44;2621546;28;20070;-86
2022/10/18 01:56:57;;;;;;;31.98;11.05;;;;;;;12.38;100.00;99342.25;2625749;28;20093;-87
2022/10/18 01:58:32;;;;;;;21.75;11.30;;;;;;;12.43;100.00;99345.63;2623167;28;20056;-87
2022/10/18 02:00:07;;;;;;;30.38;11.05;;;;;;;12.48;100.00;99340.28;2622747;28;20044;-88
2022/10/18 02:01:51;;;;;;;22.50;10.98;;;;;;;12.52;100.00;99344.59;2624190;28;20862;-87
2022/10/18 02:03:25;;;;;;;33.92;9.82;;;;;;;12.72;100.00;99341.53;2622648;28;20453;-88
2022/10/18 02:04:50;;;;;;;41.78;11.20;;;;;;;12.62;100.00;99348.72;2621630;28;20064;-88
2022/10/18 02:06:15;;;;;;;20.58;9.63;;;;;;;12.59;100.00;99345.31;2624857;28;20044;-88
2022/10/18 02:07:46;;;;;;;24.85;10.93;;;;;;;12.41;100.00;99342.16;2624981;28;20052;-87
2022/10/18 02:09:15;;;;;;;28.05;10.82;;;;;;;12.34;100.00;99337.94;2625016;28;20082;-88
2022/10/18 02:10:40;;;;;;;32.90;10.82;;;;;;;12.38;100.00;99339.59;2622979;28;20079;-87
2022/10/18 02:11:57;;;;;;;28.60;10.85;;;;;;;12.46;100.00;99334.19;2624818;28;20051;-88
2022/10/18 02:13:17;;;;;;;27.67;11.25;;;;;;;12.61;100.00;99336.47;2627631;28;20356;-89
2022/10/18 02:14:33;;;;;;;31.65;11.13;;;;;;;12.62;100.00;99340.00;2624186;28;20441;-90
2022/10/18 02:15:56;;;;;;;32.17;12.70;;;;;;;12.34;100.00;99340.59;2621373;28;20506;-87
2022/10/18 02:17:13;;;;;;;28.08;10.93;;;;;;;12.26;100.00;99338.97;2622395;28;21276;-87
2022/10/18 02:18:44;;;;;;;27.05;10.65;;;;;;;12.47;100.00;99335.91;2625353;28;20077;-86
2022/10/18 02:20:01;;;;;;;25.70;10.63;;;;;;;12.54;100.00;99341.00;2625735;28;20052;-87
2022/10/18 02:21:19;;;;;;;19.80;9.73;;;;;;;12.54;100.00;99334.91;2621576;28;20053;-91
2022/10/18 02:22:38;;;;;;;20.95;10.57;;;;;;;12.64;100.00;99331.19;2623777;28;20044;-87
2022/10/18 02:23:56;;;;;;;23.05;10.07;;;;;;;12.46;100.00;99336.81;2624073;28;20040;-85
2022/10/18 02:25:19;;;;;;;32.88;10.77;;;;;;;12.57;100.00;99329.56;2623346;28;20070;-87
2022/10/18 02:26:34;;;;;;;30.77;10.55;;;;;;;12.51;100.00;99333.19;2625576;28;20409;-86
2022/10/18 02:27:51;;;;;;;36.28;11.52;;;;;;;12.43;100.00;99332.47;2621772;28;20048;-86
2022/10/18 02:29:07;;;;;;;30.75;11.23;;;;;;;12.36;100.00;99338.78;2624130;28;20469;-87
2022/10/18 02:30:36;;;;;;;24.88;11.05;;;;;;;12.28;100.00;99329.28;2622470;28;20052;-86
2022/10/18 02:32:01;;;;;;;18.92;10.32;;;;;;;12.50;100.00;99326.22;2622803;28;20094;-87
2022/10/18 02:33:51;;;;;;;27.02;10.55;;;;;;;12.51;100.00;99325.31;2627547;28;20051;-87
2022/10/18 02:35:07;;;;;;;24.58;10.20;;;;;;;12.56;100.00;99326.06;2615931;28;20052;-88
2022/10/18 02:36:32;;;;;;;32.58;10.23;;;;;;;12.42;100.00;99325.50;2624956;28;20131;-87
2022/10/18 02:37:50;;;;;;;46.42;11.00;;;;;;;12.46;100.00;99331.56;2624032;28;20055;-87
2022/10/18 02:39:13;;;;;;;33.92;10.18;;;;;;;12.47;100.00;99331.53;2626789;28;20128;-88
2022/10/18 02:40:29;;;;;;;70.22;11.32;;;;;;;12.45;100.00;99330.72;2623604;28;20178;-87
2022/10/18 02:41:44;;;;;;;77.95;12.40;;;;;;;12.36;100.00;99336.16;2625072;28;20491;-89
2022/10/18 02:43:00;;;;;;;65.95;12.05;;;;;;;12.26;100.00;99331.09;2622675;28;20077;-87
2022/10/18 02:44:16;;;;;;;68.85;12.38;;;;;;;12.38;100.00;99332.59;2624385;28;20705;-88
2022/10/18 02:45:31;;;;;;;42.35;10.95;;;;;;;12.40;100.00;99335.19;2626043;28;20288;-91
2022/10/18 02:46:47;;;;;;;86.10;12.07;;;;;;;12.51;100.00;99334.97;2621720;28;20052;-88
2022/10/18 02:48:03;;;;;;;48.97;11.40;;;;;;;12.40;100.00;99336.06;2623613;28;20484;-87
2022/10/18 02:49:18;;;;;;;54.85;11.18;;;;;;;12.49;100.00;99332.38;2623389;28;20449;-87
2022/10/18 02:50:34;;;;;;;57.05;11.80;;;;;;;12.48;100.00;99332.41;2622425;28;20048;-87
2022/10/18 02:51:49;;;;;;;40.75;11.40;;;;;;;12.42;100.00;99336.88;2622612;28;20052;-87
2022/10/18 02:53:05;;;;;;;42.25;11.48;;;;;;;12.37;100.00;99340.50;2625590;28;20670;-88
2022/10/18 02:54:21;;;;;;;35.92;12.45;;;;;;;12.54;100.00;99341.00;2623352;28;20510;-87
2022/10/18 02:55:37;;;;;;;45.03;11.63;;;;;;;12.13;100.00;99345.34;2624640;28;20079;-89
2022/10/18 02:56:53;;;;;;;47.25;10.07;;;;;;;12.25;100.00;99345.13;2620596;28;20411;-86
2022/10/18 02:58:08;;;;;;;65.95;11.43;;;;;;;12.20;100.00;99346.09;2620286;28;20499;-86
2022/10/18 02:59:24;;;;;;;57.97;12.30;;;;;;;12.31;100.00;99345.91;2621683;28;20123;-87
2022/10/18 03:00:39;;;;;;;36.33;10.80;;;;;;;12.09;100.00;99341.94;2626785;28;20040;-87
2022/10/18 03:01:55;;;;;;;32.63;11.48;;;;;;;12.09;100.00;99347.19;2623374;28;20051;-87
2022/10/18 03:03:10;;;;;;;41.03;11.25;;;;;;;12.06;100.00;99347.22;2623863;28;20758;-86
2022/10/18 03:04:26;;;;;;;38.90;11.88;;;;;;;12.28;100.00;99342.41;2621659;28;20051;-89
2022/10/18 03:05:41;;;;;;;55.75;10.95;;;;;;;12.32;100.00;99348.47;2621309;28;20739;-88
2022/10/18 03:06:57;;;;;;;81.68;12.50;;;;;;;12.46;100.00;99352.56;2621754;28;20098;-88
2022/10/18 03:08:12;;;;;;;84.03;10.95;;;;;;;12.14;100.00;99347.97;2623038;28;20487;-87
2022/10/18 03:09:28;;;;;;;95.35;12.95;;;;;;;12.11;100.00;99347.16;2621546;28;20080;-92
2022/10/18 03:10:45;;;;;;;90.97;12.90;;;;;;;12.31;100.00;99338.88;2620971;28;20491;-88
2022/10/18 03:12:00;;;;;;;40.80;10.85;;;;;;;12.17;100.00;99346.16;2622380;28;20039;-86
2022/10/18 03:13:16;;;;;;;68.07;9.93;;;;;;;12.15;100.00;99349.69;2623904;28;20503;-89
2022/10/18 03:14:32;;;;;;;69.72;10.27;;;;;;;11.95;100.00;99349.19;2620798;28;20048;-87
2022/10/18 03:15:47;;;;;;;48.38;8.77;;;;;;;11.78;100.00;99347.72;2622373;28;20147;-87
2022/10/18 03:17:03;;;;;;;86.00;10.88;;;;;;;12.08;100.00;99350.72;2621138;28;20044;-89
2022/10/18 03:18:19;;;;;;;72.65;10.65;;;;;;;12.11;100.00;99352.41;2622341;28;20047;-86
2022/10/18 03:19:34;;;;;;;88.60;10.95;;;;;;;11.85;100.00;99345.84;2623671;28;20093;-86
2022/10/18 03:20:50;;;;;;;91.75;11.77;;;;;;;11.81;100.00;99345.06;2611670;28;20052;-87
2022/10/18 03:22:05;;;;;;;89.93;11.00;;;;;;;12.21;100.00;99353.06;2614829;28;20047;-87
2022/10/18 03:23:21;;;;;;;70.88;11.75;;;;;;;12.17;100.00;99351.41;2623285;28;20056;-87
2022/10/18 03:24:37;;;;;;;97.07;12.13;;;;;;;12.16;100.00;99350.56;2625551;28;20071;-88
2022/10/18 03:25:52;;;;;;;148.55;13.73;;;;;;;12.34;100.00;99349.31;2623576;28;20318;-88
2022/10/18 03:27:08;;;;;;;83.90;12.68;;;;;;;12.22;100.00;99350.44;2621709;28;20075;-88
2022/10/18 03:28:23;;;;;;;109.72;12.70;;;;;;;12.32;100.00;99345.84;2620583;28;20060;-87
2022/10/18 03:29:39;;;;;;;73.63;11.65;;;;;;;12.34;100.00;99354.56;2624755;28;20109;-88
2022/10/18 03:31:02;;;;;;;52.70;11.07;;;;;;;12.23;100.00;99346.06;2624014;28;20044;-87
2022/10/18 03:32:18;;;;;;;107.05;13.52;;;;;;;12.28;100.00;99346.81;2624658;28;20185;-87
2022/10/18 03:33:34;;;;;;;89.63;13.85;;;;;;;12.14;100.00;99345.34;2614709;28;20166;-86
2022/10/18 03:34:49;;;;;;;91.05;12.55;;;;;;;11.96;100.00;99351.78;2617893;28;20635;-86
2022/10/18 03:36:05;;;;;;;78.60;12.95;;;;;;;11.89;100.00;99352.78;2621896;28;20052;-86
2022/10/18 03:37:20;;;;;;;105.25;12.88;;;;;;;11.88;100.00;99351.06;2623010;28;20736;-85
2022/10/18 03:38:36;;;;;;;70.15;11.13;;;;;;;11.83;100.00;99351.16;2622052;28;20224;-85
2022/10/18 03:39:52;;;;;;;147.02;13.60;;;;;;;11.71;100.00;99348.75;2619300;28;20058;-86
2022/10/18 03:41:08;;;;;;;136.13;13.40;;;;;;;11.61;100.00;99350.66;2623028;28;20047;-86
2022/10/18 03:42:23;;;;;;;164.05;16.02;;;;;;;11.78;100.00;99352.97;2620751;28;20051;-87
2022/10/18 03:43:39;;;;;;;104.75;14.05;;;;;;;11.84;100.00;99347.63;2624279;28;20628;-86
2022/10/18 03:44:55;;;;;;;128.70;17.40;;;;;;;11.96;100.00;99345.66;2609034;28;20045;-88
2022/10/18 03:46:10;;;;;;;216.85;20.30;;;;;;;12.09;100.00;99341.06;2614745;28;20582;-89
2022/10/18 03:47:26;;;;;;;179.32;13.98;;;;;;;12.15;100.00;99340.94;2622396;28;20045;-88
2022/10/18 03:48:41;;;;;;;159.93;15.13;;;;;;;12.12;100.00;99335.75;2624875;28;21082;-87
2022/10/18 03:49:57;;;;;;;47.15;11.30;;;;;;;12.08;100.00;99347.22;2621076;28;20415;-91
2022/10/18 03:51:12;;;;;;;98.32;13.27;;;;;;;12.06;100.00;99338.50;2623295;28;20134;-87
2022/10/18 03:52:28;;;;;;;30.30;12.07;;;;;;;11.83;100.00;99338.03;2622290;28;20044;-86
2022/10/18 03:53:44;;;;;;;84.82;13.18;;;;;;;11.96;100.00;99333.41;2622172;28;20040;-86
2022/10/18 03:54:59;;;;;;;106.97;15.82;;;;;;;11.95;100.00;99331.66;2621358;28;20066;-87
2022/10/18 03:56:15;;;;;;;160.02;18.55;;;;;;;11.96;100.00;99332.56;2624097;28;20048;-86
2022/10/18 03:57:30;;;;;;;150.25;17.15;;;;;;;11.99;100.00;99335.97;2622976;28;20048;-86
2022/10/18 03:58:46;;;;;;;80.53;14.63;;;;;;;11.88;100.00;99337.94;2624831;28;20045;-88
2022/10/18 04:00:03;;;;;;;123.57;17.05;;;;;;;11.94;100.00;99334.31;2622174;28;20048;-87
2022/10/18 04:01:18;;;;;;;173.52;17.67;;;;;;;11.90;100.00;99344.03;2622955;28;20056;-86
2022/10/18 04:02:34;;;;;;;42.90;13.43;;;;;;;11.69;100.00;99340.88;2621153;28;20423;-85
2022/10/18 04:03:50;;;;;;;135.35;17.92;;;;;;;11.74;100.00;99332.94;2624245;28;20079;-86
2022/10/18 04:05:06;;;;;;;58.60;14.15;;;;;;;11.96;100.00;99335.19;2621262;28;20048;-88
2022/10/18 04:06:21;;;;;;;63.40;13.88;;;;;;;12.00;100.00;99335.06;2624318;28;20056;-87
2022/10/18 04:07:37;;;;;;;140.18;16.23;;;;;;;12.01;100.00;99335.94;2624672;28;20586;-87
2022/10/18 04:08:54;;;;;;;78.85;14.27;;;;;;;12.04;100.00;99329.81;2623623;28;20048;-88
2022/10/18 04:10:09;;;;;;;108.07;13.52;;;;;;;12.08;100.00;99328.84;2626997;28;20759;-87
2022/10/18 04:11:25;;;;;;;124.40;14.80;;;;;;;12.05;100.00;99328.91;2622066;28;20052;-88
2022/10/18 04:12:41;;;;;;;112.10;15.38;;;;;;;12.03;100.00;99323.69;2621959;28;20059;-87
2022/10/18 04:13:56;;;;;;;92.80;13.77;;;;;;;11.99;100.00;99332.47;2622294;28;20059;-87
2022/10/18 04:15:12;;;;;;;115.97;14.45;;;;;;;12.07;100.00;99327.13;2623142;28;20056;-87
2022/10/18 04:16:27;;;;;;;79.68;14.27;;;;;;;12.01;100.00;99328.06;2623795;28;20386;-89
2022/10/18 04:17:43;;;;;;;54.42;12.68;;;;;;;11.96;100.00;99328.16;2621282;28;20071;-88
2022/10/18 04:18:59;;;;;;;34.20;12.43;;;;;;;12.04;100.00;99329.81;2622154;28;20048;-87
2022/10/18 04:20:14;;;;;;;90.28;13.77;;;;;;;12.06;100.00;99326.25;2621714;28;20055;-87
2022/10/18 04:21:30;;;;;;;65.50;13.13;;;;;;;12.16;100.00;99324.31;2620421;28;20173;-87
2022/10/18 04:22:47;;;;;;;102.72;14.18;;;;;;;12.24;100.00;99325.00;2622590;28;20051;-87
2022/10/18 04:24:03;;;;;;;58.25;11.82;;;;;;;12.13;100.00;99325.22;2621415;28;20052;-88
2022/10/18 04:25:18;;;;;;;24.08;11.27;;;;;;;12.26;100.00;99323.22;2620804;28;20044;-86
2022/10/18 04:26:34;;;;;;;42.47;11.77;;;;;;;12.21;100.00;99327.69;2620624;28;20044;-86
2022/10/18 04:27:49;;;;;;;102.38;13.93;;;;;;;12.15;100.00;99325.19;2623379;28;20494;-87
2022/10/18 04:29:05;;;;;;;59.25;12.38;;;;;;;12.15;100.00;99328.69;2623933;28;20138;-87
2022/10/18 04:30:21;;;;;;;56.08;11.52;;;;;;;12.20;100.00;99325.97;2624682;28;20163;-86
2022/10/18 04:31:36;;;;;;;126.90;14.30;;;;;;;12.24;100.00;99327.63;2623564;28;20051;-87
2022/10/18 04:32:52;;;;;;;75.93;12.43;;;;;;;12.21;100.00;99321.56;2625155;28;20057;-89
2022/10/18 04:34:09;;;;;;;51.92;11.43;;;;;;;12.20;100.00;99322.47;2622402;28;20066;-85
2022/10/18 04:35:24;;;;;;;78.50;13.55;;;;;;;12.29;100.00;99328.41;2626335;28;20433;-87
2022/10/18 04:36:40;;;;;;;91.80;13.05;;;;;;;12.24;100.00;99317.13;2622423;28;20049;-87
2022/10/18 04:37:56;;;;;;;107.82;13.73;;;;;;;12.19;100.00;99315.50;2624912;28;20570;-87
2022/10/18 04:39:11;;;;;;;75.18;12.35;;;;;;;12.16;100.00;99324.31;2625199;28;20468;-88
2022/10/18 04:40:27;;;;;;;212.95;16.45;;;;;;;12.09;100.00;99317.44;2621724;28;20044;-87
2022/10/18 04:41:42;;;;;;;50.20;11.82;;;;;;;12.11;100.00;99316.53;2624531;28;20049;-87
2022/10/18 04:42:58;;;;;;;68.38;12.32;;;;;;;12.11;100.00;99316.53;2625151;28;20109;-87
2022/10/18 04:44:14;;;;;;;99.00;13.88;;;;;;;12.10;100.00;99311.28;2626833;28;20534;-86
2022/10/18 04:45:29;;;;;;;44.60;13.00;;;;;;;12.00;100.00;99314.06;2623832;28;20048;-87
2022/10/18 04:46:45;;;;;;;40.55;12.77;;;;;;;11.82;100.00;99317.06;2624106;28;20047;-86
2022/10/18 04:48:00;;;;;;;102.93;15.55;;;;;;;11.95;100.00;99320.31;2627471;28;20100;-86
2022/10/18 04:49:16;;;;;;;107.85;13.80;;;;;;;11.99;100.00;99312.34;2628337;28;20131;-85
2022/10/18 04:50:32;;;;;;;60.67;14.02;;;;;;;12.01;100.00;99314.94;2626917;28;20481;-85
2022/10/18 04:51:47;;;;;;;105.40;15.27;;;;;;;11.99;100.00;99317.59;2628226;28;20055;-85
2022/10/18 04:53:03;;;;;;;101.60;16.85;;;;;;;11.99;100.00;99316.75;2627381;28;20136;-86
2022/10/18 04:54:18;;;;;;;83.90;14.48;;;;;;;11.95;100.00;99321.16;2626944;28;20131;-85
2022/10/18 04:55:34;;;;;;;143.35;17.75;;;;;;;11.93;100.00;99322.97;2627074;28;20108;-85
2022/10/18 04:56:50;;;;;;;144.07;14.65;;;;;;;12.01;100.00;99317.56;2627160;28;20052;-86
2022/10/18 04:58:05;;;;;;;128.85;15.63;;;;;;;11.94;100.00;99315.94;2626907;28;20074;-89
2022/10/18 04:59:21;;;;;;;79.85;12.25;;;;;;;11.75;100.00;99315.47;2626135;28;20684;-85
2022/10/18 05:00:37;;;;;;;79.75;12.43;;;;;;;11.67;100.00;99311.19;2627298;28;20048;-85
2022/10/18 05:01:53;;;;;;;112.15;14.75;;;;;;;11.91;100.00;99313.38;2627079;28;20098;-86
2022/10/18 05:03:11;;;;;;;81.45;13.88;;;;;;;12.09;100.00;99317.44;2624950;28;21030;-86
2022/10/18 05:04:27;;;;;;;68.45;13.43;;;;;;;12.00;100.00;99318.47;2621047;28;20052;-86
2022/10/18 05:05:44;;;;;;;90.68;12.27;;;;;;;12.10;100.00;99316.53;2621030;28;20120;-91
2022/10/18 05:07:01;;;;;;;75.50;12.60;;;;;;;11.95;100.00;99326.41;2623445;28;20457;-85
2022/10/18 05:08:17;;;;;;;55.78;13.63;;;;;;;11.93;100.00;99328.22;2628325;28;20044;-85
2022/10/18 05:09:32;;;;;;;62.17;12.77;;;;;;;12.03;100.00;99325.44;2624832;28;20095;-86
2022/10/18 05:10:48;;;;;;;49.70;12.52;;;;;;;12.00;100.00;99327.19;2625192;28;20052;-87
2022/10/18 05:12:04;;;;;;;59.40;12.80;;;;;;;11.82;100.00;99320.56;2622650;28;20080;-86
2022/10/18 05:13:24;;;;;;;45.00;11.40;;;;;;;12.05;100.00;99327.13;2626048;28;20546;-86
2022/10/18 05:14:40;;;;;;;49.17;12.20;;;;;;;11.96;100.00;99330.78;2624593;28;20052;-85
2022/10/18 05:15:58;;;;;;;132.15;15.27;;;;;;;11.70;100.00;99315.53;2623649;28;20140;-88
2022/10/18 05:17:14;;;;;;;80.85;13.50;;;;;;;11.58;100.00;99324.47;2624421;28;20198;-85
2022/10/18 05:18:29;;;;;;;69.03;14.55;;;;;;;11.65;100.00;99320.88;2613965;28;20045;-85
2022/10/18 05:19:45;;;;;;;95.65;14.93;;;;;;;11.69;100.00;99319.91;2613933;28;20413;-84
2022/10/18 05:21:01;;;;;;;169.27;15.57;;;;;;;11.73;100.00;99315.47;2620698;28;20120;-85
2022/10/18 05:22:16;;;;;;;142.73;14.82;;;;;;;11.64;100.00;99315.63;2623406;28;20052;-85
2022/10/18 05:23:32;;;;;;;172.13;18.20;;;;;;;11.70;100.00;99315.53;2623048;28;20062;-84
2022/10/18 05:24:47;;;;;;;63.05;13.32;;;;;;;11.42;100.00;99318.66;2621915;28;20489;-84
2022/10/18 05:26:05;;;;;;;58.13;13.80;;;;;;;11.43;100.00;99320.38;2624508;28;20407;-84
2022/10/18 05:27:20;;;;;;;46.25;13.43;;;;;;;11.57;100.00;99320.13;2626506;28;20102;-83
2022/10/18 05:28:36;;;;;;;47.30;12.88;;;;;;;11.57;100.00;99322.75;2622133;28;20093;-85
2022/10/18 05:29:52;;;;;;;40.25;13.35;;;;;;;11.56;100.00;99316.66;2624643;28;20068;-83
2022/10/18 05:31:10;;;;;;;56.80;12.73;;;;;;;11.66;100.00;99313.84;2624979;28;20679;-87
2022/10/18 05:32:25;;;;;;;56.72;13.00;;;;;;;11.64;100.00;99313.88;2623222;28;20051;-84
2022/10/18 05:33:41;;;;;;;50.00;13.10;;;;;;;11.73;100.00;99321.59;2624894;28;20487;-84
2022/10/18 05:34:57;;;;;;;46.65;12.15;;;;;;;11.72;100.00;99322.47;2625888;28;20063;-85
2022/10/18 05:36:12;;;;;;;57.35;13.48;;;;;;;11.85;100.00;99328.38;2625542;28;20113;-85
2022/10/18 05:37:28;;;;;;;30.50;12.20;;;;;;;11.92;100.00;99321.25;2623939;28;20040;-84
2022/10/18 05:38:44;;;;;;;124.20;15.32;;;;;;;11.95;100.00;99321.16;2624252;28;20059;-87
2022/10/18 05:40:00;;;;;;;70.13;12.82;;;;;;;11.82;100.00;99319.69;2622178;28;20511;-85
2022/10/18 05:41:15;;;;;;;90.38;14.02;;;;;;;11.85;100.00;99317.88;2622509;28;20131;-85
2022/10/18 05:42:31;;;;;;;74.50;13.40;;;;;;;11.94;100.00;99323.81;2623825;28;20059;-84
2022/10/18 05:43:46;;;;;;;39.22;12.13;;;;;;;11.76;100.00;99323.28;2621742;28;20477;-84
2022/10/18 05:45:02;;;;;;;34.78;12.35;;;;;;;11.65;100.00;99328.72;2627634;28;20048;-84
2022/10/18 05:46:18;;;;;;;44.72;12.18;;;;;;;11.81;100.00;99329.31;2624319;28;20495;-84
2022/10/18 05:47:34;;;;;;;33.35;11.07;;;;;;;11.77;100.00;99329.41;2625373;28;20044;-84
2022/10/18 05:48:50;;;;;;;27.27;11.50;;;;;;;11.69;100.00;99335.63;2623827;28;20502;-89
2022/10/18 05:50:06;;;;;;;25.02;11.05;;;;;;;11.59;100.00;99326.19;2621829;28;20114;-84
2022/10/18 05:51:21;;;;;;;22.70;10.90;;;;;;;11.83;100.00;99331.91;2622296;28;20139;-84
2022/10/18 05:52:37;;;;;;;22.80;10.73;;;;;;;12.02;100.00;99342.09;2627976;28;20044;-80
2022/10/18 05:53:53;;;;;;;26.85;10.50;;;;;;;12.04;100.00;99340.31;2626783;28;20431;-80
2022/10/18 05:55:09;;;;;;;24.50;11.05;;;;;;;12.00;100.00;99342.94;2624875;28;20052;-81
2022/10/18 05:56:24;;;;;;;27.10;10.50;;;;;;;11.72;100.00;99342.59;2621476;28;20059;-80
2022/10/18 05:57:40;;;;;;;23.60;10.38;;;;;;;11.62;100.00;99341.03;2622606;28;20048;-79